createdAt,value
2017-10-18T00:00:31.690Z,21.31
2017-10-18T00:03:02.132Z,21.32
2017-10-18T00:05:33.593Z,21.33
2017-10-18T00:08:04.744Z,21.30
2017-10-18T00:10:38.335Z,21.29
2017-10-18T00:13:09.464Z,21.27
2017-10-18T00:16:00.673Z,21.30
2017-10-18T00:18:31.298Z,21.28
2017-10-18T00:21:02.769Z,21.28
2017-10-18T00:23:34.882Z,21.29
2017-10-18T00:28:48.874Z,21.28
2017-10-18T00:31:19.458Z,21.33
2017-10-18T00:33:50.823Z,21.28
2017-10-18T00:36:40.987Z,21.31
2017-10-18T00:53:15.907Z,21.28
2017-10-18T01:18:52.969Z,21.25
2017-10-18T01:21:54.812Z,21.23
2017-10-18T01:38:17.932Z,21.24
2017-10-18T01:57:14.893Z,21.23
2017-10-18T01:59:46.546Z,21.21
2017-10-18T02:02:25.734Z,21.22
2017-10-18T02:07:56.888Z,21.21
2017-10-18T02:27:41.240Z,21.23
2017-10-18T02:33:12.616Z,21.19
2017-10-18T02:35:53.878Z,21.18
2017-10-18T02:38:30.954Z,21.20
2017-10-18T02:41:10.360Z,21.16
2017-10-18T02:43:41.865Z,21.19
2017-10-18T02:46:12.543Z,21.16
2017-10-18T02:48:51.671Z,21.18
2017-10-18T02:56:23.650Z,21.19
2017-10-18T02:58:58.269Z,21.16
2017-10-18T03:01:32.509Z,21.16
2017-10-18T03:12:23.988Z,21.16
2017-10-18T03:15:12.838Z,21.13
2017-10-18T03:22:33.056Z,21.11
2017-10-18T03:31:53.245Z,21.15
2017-10-18T03:54:13.554Z,21.12
2017-10-18T04:12:48.552Z,21.08
2017-10-18T04:15:29.087Z,21.06
2017-10-18T04:26:53.834Z,21.06
2017-10-18T04:29:30.334Z,21.06
2017-10-18T04:32:31.993Z,21.06
2017-10-18T04:40:59.778Z,21.07
2017-10-18T04:43:33.055Z,21.10
2017-10-18T04:46:26.340Z,21.08
2017-10-18T04:54:20.435Z,21.09
2017-10-18T04:56:51.402Z,21.18
2017-10-18T05:10:05.228Z,21.16
2017-10-18T05:13:57.621Z,21.19
2017-10-18T05:16:28.499Z,21.22
2017-10-18T05:38:58.406Z,21.11
2017-10-18T05:44:54.053Z,21.10
2017-10-18T05:47:27.849Z,21.03
2017-10-18T05:50:00.533Z,21.05
2017-10-18T05:52:43.055Z,21.04
2017-10-18T06:19:35.237Z,20.99
2017-10-18T06:38:37.834Z,20.95
2017-10-18T06:49:19.235Z,20.97
2017-10-18T06:51:51.263Z,20.96
2017-10-18T07:33:37.896Z,20.94
2017-10-18T07:36:08.622Z,20.99
2017-10-18T07:38:39.355Z,20.95
2017-10-18T07:41:09.990Z,20.97
2017-10-18T07:43:40.514Z,20.97
2017-10-18T07:46:11.351Z,20.99
2017-10-18T07:48:42.188Z,20.98
2017-10-18T07:53:50.271Z,20.99
2017-10-18T07:56:20.940Z,20.98
2017-10-18T07:58:51.777Z,20.97
2017-10-18T08:01:22.406Z,20.98
2017-10-18T08:03:53.245Z,20.99
2017-10-18T08:06:24.291Z,20.97
2017-10-18T08:08:54.808Z,21.01
2017-10-18T08:11:25.417Z,20.99
2017-10-18T08:13:56.152Z,20.98
2017-10-18T08:16:26.865Z,21.00
2017-10-18T08:18:57.309Z,20.98
2017-10-18T08:21:28.665Z,21.01
2017-10-18T08:23:59.683Z,21.00
2017-10-18T08:26:30.116Z,21.01
2017-10-18T08:29:00.959Z,21.00
2017-10-18T08:31:31.436Z,21.00
2017-10-18T08:34:01.896Z,20.99
2017-10-18T08:36:32.349Z,21.02
2017-10-18T08:39:02.867Z,21.00
2017-10-18T08:41:33.908Z,21.00
2017-10-18T08:44:04.443Z,21.00
2017-10-18T08:46:35.842Z,20.99
2017-10-18T08:49:06.319Z,21.01
2017-10-18T08:51:37.150Z,20.99
2017-10-18T08:54:07.741Z,21.00
2017-10-18T08:56:39.051Z,21.01
2017-10-18T08:59:09.866Z,21.04
2017-10-18T09:01:40.584Z,21.04
2017-10-18T09:04:11.419Z,21.01
2017-10-18T09:06:41.752Z,21.00
2017-10-18T09:09:12.946Z,21.03
2017-10-18T09:11:43.268Z,21.03
2017-10-18T09:14:13.896Z,21.02
2017-10-18T09:16:44.221Z,21.00
2017-10-18T09:19:14.749Z,21.02
2017-10-18T09:21:45.119Z,21.02
2017-10-18T09:24:15.404Z,21.03
2017-10-18T09:26:45.870Z,21.02
2017-10-18T09:29:16.054Z,21.02
2017-10-18T09:31:46.467Z,21.00
2017-10-18T09:34:17.314Z,21.03
2017-10-18T09:36:47.699Z,21.03
2017-10-18T09:39:18.266Z,21.02
2017-10-18T09:41:48.942Z,21.01
2017-10-18T09:44:19.527Z,21.03
2017-10-18T09:46:49.955Z,21.03
2017-10-18T09:49:20.983Z,21.01
2017-10-18T09:51:51.216Z,21.01
2017-10-18T09:54:21.552Z,21.01
2017-10-18T09:56:52.111Z,21.03
2017-10-18T09:59:22.791Z,21.01
2017-10-18T10:01:53.216Z,21.02
2017-10-18T10:04:23.649Z,21.01
2017-10-18T10:06:54.999Z,20.99
2017-10-18T11:13:56.496Z,20.95
2017-10-18T11:16:27.764Z,20.93
2017-10-18T11:18:58.372Z,20.95
2017-10-18T11:21:29.001Z,20.96
2017-10-18T11:23:59.837Z,20.96
2017-10-18T11:26:30.266Z,20.93
2017-10-18T11:29:00.814Z,20.95
2017-10-18T11:31:31.420Z,20.94
2017-10-18T11:34:01.864Z,20.98
2017-10-18T11:36:32.471Z,20.96
2017-10-18T11:39:03.111Z,20.98
2017-10-18T11:41:34.143Z,20.96
2017-10-18T11:44:04.577Z,20.97
2017-10-18T11:46:35.105Z,20.97
2017-10-18T11:49:06.247Z,21.00
2017-10-18T11:51:38.003Z,20.97
2017-10-18T11:54:08.523Z,20.98
2017-10-18T11:56:39.158Z,20.95
2017-10-18T11:59:10.181Z,20.93
2017-10-18T12:01:40.833Z,20.94
2017-10-18T12:04:11.565Z,20.94
2017-10-18T12:06:42.189Z,20.91
2017-10-18T12:09:12.446Z,20.92
2017-10-18T12:11:43.288Z,20.94
2017-10-18T12:14:13.915Z,20.95
2017-10-18T12:16:45.270Z,20.97
2017-10-18T12:19:17.336Z,20.97
2017-10-18T12:21:48.656Z,20.98
2017-10-18T12:24:21.172Z,20.99
2017-10-18T12:26:53.313Z,20.99
2017-10-18T12:29:24.150Z,21.01
2017-10-18T12:31:55.193Z,20.99
2017-10-18T12:34:27.004Z,20.96
2017-10-18T12:36:58.371Z,20.96
2017-10-18T12:39:29.437Z,20.95
2017-10-18T12:42:00.377Z,20.95
2017-10-18T12:44:31.301Z,20.95
2017-10-18T12:47:01.839Z,20.95
2017-10-18T12:49:32.426Z,20.95
2017-10-18T12:52:02.744Z,20.94
2017-10-18T12:54:33.483Z,20.96
2017-10-18T12:57:04.312Z,20.95
2017-10-18T12:59:35.292Z,20.96
2017-10-18T13:02:07.016Z,20.96
2017-10-18T13:04:37.951Z,20.96
2017-10-18T13:07:09.439Z,20.98
2017-10-18T13:09:40.022Z,20.96
2017-10-18T13:12:10.870Z,20.95
2017-10-18T13:14:41.388Z,20.93
2017-10-18T13:17:12.025Z,20.93
2017-10-18T13:19:42.555Z,20.93
2017-10-18T13:22:13.056Z,20.93
2017-10-18T13:24:43.711Z,20.92
2017-10-18T13:27:15.255Z,20.92
2017-10-18T13:29:45.683Z,20.92
2017-10-18T13:32:16.520Z,20.91
2017-10-18T13:34:47.162Z,20.91
2017-10-18T13:37:18.910Z,20.91
2017-10-18T13:39:49.540Z,20.90
2017-10-18T13:42:20.278Z,20.90
2017-10-18T13:44:51.105Z,20.91
2017-10-18T13:47:21.746Z,20.91
2017-10-18T14:09:55.926Z,20.92
2017-10-18T14:12:34.646Z,20.91
2017-10-18T14:40:03.375Z,20.92
2017-10-18T14:46:35.571Z,20.92
2017-10-18T14:49:06.304Z,20.90
2017-10-18T14:54:34.024Z,20.90
2017-10-18T14:57:04.606Z,20.90
2017-10-18T15:08:58.131Z,20.91
2017-10-18T15:11:28.828Z,20.89
2017-10-18T15:30:28.385Z,21.01
2017-10-18T15:33:06.081Z,20.98
2017-10-18T15:35:48.040Z,20.99
2017-10-18T15:38:19.532Z,20.98
2017-10-18T15:40:50.393Z,20.99
2017-10-18T15:57:06.598Z,20.96
2017-10-18T15:59:48.391Z,20.96
2017-10-18T16:02:23.432Z,20.95
2017-10-18T16:04:55.256Z,20.97
2017-10-18T16:07:27.839Z,20.95
2017-10-18T16:12:45.313Z,20.96
2017-10-18T16:15:16.492Z,20.94
2017-10-18T16:18:16.470Z,20.94
2017-10-18T16:20:46.740Z,20.93
2017-10-18T16:23:17.407Z,20.91
2017-10-18T16:25:52.238Z,20.94
2017-10-18T16:28:22.658Z,20.92
2017-10-18T16:30:54.098Z,20.90
2017-10-18T16:33:25.128Z,20.90
2017-10-18T16:36:00.131Z,20.91
2017-10-18T16:38:30.787Z,20.92
2017-10-18T16:41:10.650Z,20.91
2017-10-18T16:43:54.251Z,20.92
2017-10-18T16:55:58.869Z,21.06
2017-10-18T16:58:46.508Z,21.07
2017-10-18T17:01:17.919Z,21.08
2017-10-18T17:04:04.910Z,21.14
2017-10-18T18:05:31.759Z,22.01
2017-10-18T18:08:01.996Z,21.44
2017-10-18T18:10:32.194Z,21.30
2017-10-18T18:13:02.307Z,21.29
2017-10-18T18:15:32.695Z,21.29
2017-10-18T18:18:25.195Z,21.31
2017-10-18T18:20:57.372Z,21.32
2017-10-18T18:23:29.659Z,21.33
2017-10-18T18:26:00.015Z,21.33
2017-10-18T18:28:30.201Z,21.30
2017-10-18T18:31:00.442Z,21.40
2017-10-18T18:33:30.760Z,21.41
2017-10-18T18:36:01.472Z,21.39
2017-10-18T18:38:31.817Z,21.33
2017-10-18T18:41:01.907Z,21.32
2017-10-18T18:43:32.162Z,21.32
2017-10-18T18:46:02.274Z,21.30
2017-10-18T18:48:34.070Z,21.31
2017-10-18T18:51:04.474Z,21.31
2017-10-18T18:53:34.784Z,21.42
2017-10-18T18:56:05.501Z,21.38
2017-10-18T18:58:35.866Z,21.43
2017-10-18T19:01:06.198Z,21.39
2017-10-18T19:03:36.560Z,21.44
2017-10-18T19:06:06.765Z,21.39
2017-10-18T19:08:36.893Z,21.45
2017-10-18T19:11:09.182Z,21.42
2017-10-18T19:13:41.579Z,21.38
2017-10-18T19:16:14.039Z,21.36
2017-10-18T19:18:46.129Z,21.37
2017-10-18T19:21:17.047Z,21.38
2017-10-18T19:23:47.440Z,21.39
2017-10-18T19:26:19.561Z,21.39
2017-10-18T19:28:50.088Z,21.39
2017-10-18T19:31:20.714Z,21.41
2017-10-18T19:33:51.144Z,21.42
2017-10-18T19:36:21.415Z,21.41
2017-10-18T19:38:51.561Z,21.41
2017-10-18T19:41:21.892Z,21.40
2017-10-18T19:43:51.946Z,21.41
2017-10-18T19:46:22.162Z,21.41
2017-10-18T19:48:52.641Z,21.43
2017-10-18T19:51:23.171Z,21.41
2017-10-18T19:53:53.467Z,21.41
2017-10-18T19:56:23.672Z,21.41
2017-10-18T19:58:54.362Z,21.41
2017-10-18T20:01:24.810Z,21.43
2017-10-18T20:03:54.715Z,21.45
2017-10-18T20:06:24.664Z,21.50
2017-10-18T20:08:55.034Z,21.57
2017-10-18T20:11:25.682Z,21.58
2017-10-18T20:13:55.675Z,21.57
2017-10-18T20:16:25.920Z,21.41
2017-10-18T20:18:56.133Z,21.36
2017-10-18T20:21:26.289Z,21.32
2017-10-18T20:23:56.814Z,21.30
2017-10-18T20:26:27.171Z,21.37
2017-10-18T20:28:57.431Z,21.33
2017-10-18T20:31:27.784Z,21.31
2017-10-18T20:33:57.804Z,21.29
2017-10-18T20:36:28.124Z,21.28
2017-10-18T20:38:58.368Z,21.27
2017-10-18T20:41:28.681Z,21.26
2017-10-18T20:43:58.775Z,21.24
2017-10-18T20:46:29.439Z,21.24
2017-10-18T20:48:59.537Z,21.23
2017-10-18T20:51:29.902Z,21.22
2017-10-18T20:53:59.844Z,21.22
2017-10-18T20:56:30.053Z,21.22
2017-10-18T20:59:00.364Z,21.21
2017-10-18T21:01:30.673Z,21.20
2017-10-18T21:04:00.835Z,21.22
2017-10-18T21:06:31.185Z,21.20
2017-10-18T21:09:01.371Z,21.19
2017-10-18T21:11:31.555Z,21.19
2017-10-18T21:14:01.915Z,21.19
2017-10-18T21:16:32.184Z,21.20
2017-10-18T21:19:02.530Z,21.19
2017-10-18T21:21:32.971Z,21.19
2017-10-18T21:24:03.315Z,21.19
2017-10-18T21:26:33.517Z,21.18
2017-10-18T21:29:03.627Z,21.18
2017-10-18T21:31:33.969Z,21.17
2017-10-18T21:34:04.062Z,21.17
2017-10-18T21:36:34.548Z,21.17
2017-10-18T21:39:04.860Z,21.16
2017-10-18T21:41:35.295Z,21.16
2017-10-18T21:44:05.811Z,21.15
2017-10-18T21:46:35.906Z,21.15
2017-10-18T21:49:06.153Z,21.15
2017-10-18T21:51:36.502Z,21.14
2017-10-18T21:54:06.731Z,21.13
2017-10-18T21:56:37.460Z,21.12
2017-10-18T21:59:07.681Z,21.14
2017-10-18T22:01:37.769Z,21.13
2017-10-18T22:04:08.142Z,21.14
2017-10-18T22:06:38.366Z,21.13
2017-10-18T22:09:08.369Z,21.11
2017-10-18T22:11:38.374Z,21.11
2017-10-18T22:14:08.586Z,21.11
2017-10-18T22:16:38.900Z,21.10
2017-10-18T22:19:09.083Z,21.11
2017-10-18T22:21:39.211Z,21.09
2017-10-18T22:24:09.319Z,21.10
2017-10-18T22:26:39.691Z,21.09
2017-10-18T22:29:10.084Z,21.10
2017-10-18T22:31:40.298Z,21.08
2017-10-18T22:34:10.509Z,21.07
2017-10-18T22:36:40.891Z,21.07
2017-10-18T22:39:11.148Z,21.09
2017-10-18T22:41:41.625Z,21.07
2017-10-18T22:44:11.824Z,21.07
2017-10-18T22:46:42.126Z,21.05
2017-10-18T22:49:12.398Z,21.07
2017-10-18T22:51:42.590Z,21.06
2017-10-18T22:54:13.037Z,21.08
2017-10-18T22:56:43.262Z,21.06
2017-10-18T22:59:13.348Z,21.04
2017-10-18T23:01:43.711Z,21.05
2017-10-18T23:04:13.817Z,21.04
2017-10-18T23:06:44.063Z,21.04
2017-10-18T23:09:14.385Z,21.05
2017-10-18T23:11:44.651Z,21.04
2017-10-18T23:14:15.039Z,21.02
2017-10-18T23:16:45.412Z,21.03
2017-10-18T23:19:15.725Z,21.03
2017-10-18T23:21:46.019Z,21.03
2017-10-18T23:24:16.239Z,21.02
2017-10-18T23:26:46.482Z,21.04
2017-10-18T23:29:16.675Z,21.03
2017-10-18T23:31:46.796Z,21.03
2017-10-18T23:34:17.043Z,21.03
2017-10-18T23:36:47.465Z,21.03
2017-10-18T23:39:17.997Z,21.01
2017-10-18T23:41:48.422Z,21.01
2017-10-18T23:44:18.477Z,21.00
2017-10-18T23:46:48.852Z,21.02
2017-10-18T23:49:19.010Z,20.99
2017-10-18T23:51:49.424Z,20.99
2017-10-18T23:54:19.503Z,21.00
2017-10-18T23:56:49.866Z,20.99
2017-10-18T23:59:20.000Z,20.99
